Time;durP1;ratioP1;P1;durP2;ratioP2;P2;SDS_P1;SDS_P2;PMS_P1;PMS_P2;Temp;Humidity;BMP_temperature;BMP_pressure;BME280_temperature;BME280_humidity;BME280_pressure;Samples;Min_cycle;Max_cycle;Signal;HPM_P1;HPM_P2
2022/09/04 00:00:09;;;;;;;3.75;2.65;;;24.20;96.70;;;;;;5049905;28;20037;-76
2022/09/04 00:02:57;;;;;;;3.83;2.60;;;24.10;96.70;;;;;;5044916;28;20136;-75
2022/09/04 00:05:30;;;;;;;4.57;2.60;;;24.10;96.70;;;;;;5047802;28;20041;-76
2022/09/04 00:08:13;;;;;;;4.38;2.72;;;24.10;96.70;;;;;;5048004;28;20043;-75
2022/09/04 00:10:49;;;;;;;5.13;3.00;;;24.10;96.70;;;;;;5050056;28;20052;-76
2022/09/04 00:13:22;;;;;;;7.30;3.17;;;24.10;96.70;;;;;;5052596;28;20045;-76
2022/09/04 00:15:57;;;;;;;4.82;2.97;;;24.00;96.70;;;;;;5045942;28;20049;-75
2022/09/04 00:18:30;;;;;;;7.35;3.00;;;24.00;96.70;;;;;;5046497;28;20787;-76
2022/09/04 00:21:06;;;;;;;3.72;2.95;;;24.00;96.70;;;;;;5040482;28;20040;-76
2022/09/04 00:23:41;;;;;;;6.43;2.03;;;24.00;96.70;;;;;;5042717;28;20057;-77
2022/09/04 00:26:16;;;;;;;5.63;3.10;;;24.00;96.70;;;;;;5044348;28;20498;-76
2022/09/04 00:28:52;;;;;;;6.90;3.42;;;24.00;96.70;;;;;;5044255;28;20052;-76
2022/09/04 00:31:27;;;;;;;5.25;2.65;;;24.10;96.70;;;;;;5036027;28;20048;-76
2022/09/04 00:34:10;;;;;;;3.42;2.65;;;24.20;96.70;;;;;;5046091;28;20099;-76
2022/09/04 00:36:41;;;;;;;5.93;2.90;;;24.20;96.70;;;;;;5042419;28;20493;-76
2022/09/04 00:39:21;;;;;;;4.18;2.70;;;24.00;96.70;;;;;;5044001;28;20124;-75
2022/09/04 00:42:09;;;;;;;6.45;3.17;;;24.10;96.70;;;;;;5057244;28;20053;-76
2022/09/04 00:44:46;;;;;;;;;;;23.90;96.70;;;;;;5049319;28;20079;-75
2022/09/04 00:47:42;;;;;;;3.85;2.30;;;23.90;96.70;;;;;;5047471;28;19964;-77
2022/09/04 00:50:32;;;;;;;3.85;2.55;;;24.00;96.70;;;;;;5048690;28;20053;-77
2022/09/04 00:53:19;;;;;;;3.58;2.33;;;24.10;96.70;;;;;;5043472;28;20133;-76
2022/09/04 00:55:54;;;;;;;;;;;24.10;96.70;;;;;;5029364;28;20160;-76
2022/09/04 00:58:47;;;;;;;3.00;2.38;;;24.10;96.70;;;;;;5047836;28;19979;-76
2022/09/04 01:01:22;;;;;;;2.85;2.53;;;24.10;96.70;;;;;;5046252;28;20051;-75
2022/09/04 01:04:30;;;;;;;7.77;2.57;;;23.90;96.70;;;;;;5042304;28;20049;-76
2022/09/04 01:07:36;;;;;;;6.93;2.72;;;23.80;96.70;;;;;;5040623;28;20792;-76
2022/09/04 01:10:27;;;;;;;3.95;2.88;;;23.60;96.70;;;;;;5039502;28;20628;-76
2022/09/04 01:13:02;;;;;;;7.78;2.80;;;23.70;96.70;;;;;;5045767;28;20044;-76
2022/09/04 01:15:37;;;;;;;4.10;2.60;;;23.70;96.70;;;;;;5052502;28;20107;-76
2022/09/04 01:18:11;;;;;;;3.97;2.63;;;23.70;96.70;;;;;;5041653;28;20060;-77
2022/09/04 01:20:52;;;;;;;3.85;2.42;;;23.60;96.70;;;;;;5043517;28;20051;-75
2022/09/04 01:23:50;;;;;;;6.38;2.75;;;23.70;96.70;;;;;;5048666;28;20525;-75
2022/09/04 01:26:24;;;;;;;3.22;2.35;;;23.70;96.70;;;;;;5045354;28;20044;-75
2022/09/04 01:29:09;;;;;;;3.65;2.08;;;23.80;96.70;;;;;;5047062;28;20045;-75
2022/09/04 01:31:45;;;;;;;4.03;2.55;;;23.80;96.70;;;;;;5045970;28;20400;-75
2022/09/04 01:34:30;;;;;;;3.58;2.38;;;23.70;96.70;;;;;;5042187;28;20135;-75
2022/09/04 01:37:05;;;;;;;5.57;2.97;;;23.70;96.70;;;;;;5053077;28;20068;-75
2022/09/04 01:39:36;;;;;;;3.95;2.53;;;23.60;96.70;;;;;;5053100;28;20040;-75
2022/09/04 01:42:11;;;;;;;5.90;2.60;;;23.60;96.70;;;;;;5042580;28;20048;-75
2022/09/04 01:44:39;;;;;;;3.97;2.40;;;23.60;96.70;;;;;;5037568;28;20055;-76
2022/09/04 01:47:15;;;;;;;4.25;2.53;;;23.60;96.70;;;;;;5026298;28;20148;-76
2022/09/04 01:49:49;;;;;;;4.53;2.50;;;23.40;96.70;;;;;;5046246;28;20556;-76
2022/09/04 01:52:36;;;;;;;3.85;2.47;;;23.30;96.70;;;;;;5046176;28;20075;-76
2022/09/04 01:55:17;;;;;;;3.92;2.53;;;23.30;96.70;;;;;;5044234;28;20044;-77
2022/09/04 01:57:58;;;;;;;3.30;2.90;;;23.30;96.70;;;;;;5038771;28;20048;-76
2022/09/04 02:00:32;;;;;;;4.80;2.70;;;23.30;96.70;;;;;;5044490;28;20068;-76
2022/09/04 02:03:11;;;;;;;2.50;2.10;;;23.30;96.70;;;;;;5041662;28;20692;-76
2022/09/04 02:05:54;;;;;;;2.58;2.33;;;23.30;96.70;;;;;;5042162;28;20048;-76
2022/09/04 02:08:40;;;;;;;3.40;2.70;;;23.40;96.70;;;;;;5042331;28;20069;-76
2022/09/04 02:11:13;;;;;;;4.68;2.40;;;23.40;96.70;;;;;;5028939;28;20041;-76
2022/09/04 02:14:07;;;;;;;3.13;2.28;;;23.40;96.70;;;;;;5045335;28;20502;-76
2022/09/04 02:16:55;;;;;;;2.53;2.33;;;23.40;96.70;;;;;;5020003;28;20061;-77
2022/09/04 02:19:34;;;;;;;4.50;2.30;;;23.40;96.70;;;;;;5046142;28;20131;-76
2022/09/04 02:22:10;;;;;;;5.97;2.42;;;23.40;96.70;;;;;;5042886;28;20040;-76
2022/09/04 02:24:45;;;;;;;3.38;2.30;;;23.40;96.70;;;;;;5045347;28;20052;-76
2022/09/04 02:27:19;;;;;;;5.20;2.55;;;23.30;96.70;;;;;;5046134;28;20131;-77
2022/09/04 02:29:56;;;;;;;4.50;2.35;;;23.30;96.70;;;;;;5047395;28;20622;-76
2022/09/04 02:32:34;;;;;;;3.85;2.10;;;23.20;96.70;;;;;;5032240;28;20089;-77
2022/09/04 02:35:10;;;;;;;5.97;2.33;;;23.10;96.70;;;;;;5041192;28;20045;-76
2022/09/04 02:37:49;;;;;;;2.92;2.17;;;23.10;96.70;;;;;;5049932;28;20044;-76
2022/09/04 02:40:24;;;;;;;3.97;2.25;;;23.10;96.70;;;;;;5044971;28;20115;-76
2022/09/04 02:42:58;;;;;;;;;;;23.20;96.70;;;;;;5037762;28;20055;-77
2022/09/04 02:45:36;;;;;;;4.38;2.20;;;23.20;96.70;;;;;;5043269;28;20458;-76
2022/09/04 02:48:13;;;;;;;3.25;1.98;;;23.30;96.70;;;;;;5044141;28;20684;-76
2022/09/04 02:50:58;;;;;;;4.13;1.85;;;23.40;96.70;;;;;;5041078;28;20060;-76
2022/09/04 02:53:31;;;;;;;3.38;2.22;;;23.40;96.70;;;;;;5041682;28;20053;-75
2022/09/04 02:56:12;;;;;;;4.45;2.50;;;23.40;96.70;;;;;;5046853;28;20522;-76
2022/09/04 02:58:56;;;;;;;3.83;2.33;;;23.40;96.70;;;;;;5030475;28;20490;-77
2022/09/04 03:01:31;;;;;;;4.50;2.30;;;23.30;96.70;;;;;;5042493;28;20099;-76
2022/09/04 03:04:04;;;;;;;4.28;2.17;;;23.20;96.70;;;;;;5044098;28;20144;-76
2022/09/04 03:06:50;;;;;;;3.08;2.10;;;23.20;96.70;;;;;;5044958;28;20072;-77
2022/09/04 03:09:24;;;;;;;3.00;2.22;;;23.30;96.70;;;;;;5043127;28;20041;-76
2022/09/04 03:11:58;;;;;;;4.43;2.47;;;23.30;96.70;;;;;;5041434;28;20037;-76
2022/09/04 03:14:34;;;;;;;3.17;2.20;;;23.30;96.70;;;;;;5039011;28;20056;-76
2022/09/04 03:17:11;;;;;;;2.38;2.17;;;23.30;96.70;;;;;;5042405;28;20479;-75
2022/09/04 03:19:47;;;;;;;2.58;2.30;;;23.30;96.70;;;;;;5041695;28;20502;-77
2022/09/04 03:22:17;;;;;;;;;;;23.30;96.70;;;;;;5047311;28;20127;-76
2022/09/04 03:25:01;;;;;;;4.03;2.53;;;23.10;96.70;;;;;;5045112;28;19924;-76
2022/09/04 03:27:32;;;;;;;4.00;2.28;;;23.10;96.70;;;;;;5046345;28;20136;-76
2022/09/04 03:30:05;;;;;;;5.05;2.53;;;23.10;96.70;;;;;;5063781;28;20080;-76
2022/09/04 03:32:43;;;;;;;4.53;2.55;;;23.00;96.70;;;;;;5050027;28;20045;-76
2022/09/04 03:35:21;;;;;;;5.00;2.75;;;23.00;96.70;;;;;;5046396;28;20044;-76
2022/09/04 03:38:06;;;;;;;3.83;2.70;;;23.00;96.70;;;;;;5036967;28;20041;-76
2022/09/04 03:40:38;;;;;;;3.13;2.42;;;23.00;96.70;;;;;;5047116;28;20036;-76
2022/09/04 03:43:31;;;;;;;3.25;2.38;;;23.00;96.70;;;;;;5043889;28;20068;-77
2022/09/04 03:46:14;;;;;;;4.00;2.60;;;22.90;96.70;;;;;;5014070;28;20515;-76
2022/09/04 03:49:04;;;;;;;3.30;2.15;;;23.00;96.70;;;;;;5040729;28;20076;-76
2022/09/04 03:51:41;;;;;;;4.05;2.33;;;23.00;96.70;;;;;;5052773;28;20603;-76
2022/09/04 03:54:25;;;;;;;3.83;2.40;;;23.00;96.70;;;;;;5041713;28;20049;-76
2022/09/04 03:57:05;;;;;;;5.40;2.40;;;23.00;96.70;;;;;;5047912;28;20045;-76
2022/09/04 03:59:58;;;;;;;5.53;2.55;;;23.10;96.70;;;;;;5048372;28;20600;-76
2022/09/04 04:02:36;;;;;;;5.68;2.42;;;23.10;96.70;;;;;;5041502;28;20082;-76
2022/09/04 04:05:26;;;;;;;5.13;2.63;;;23.00;96.70;;;;;;5044536;28;20400;-76
2022/09/04 04:08:11;;;;;;;6.65;2.90;;;23.00;96.70;;;;;;5045965;28;20069;-76
2022/09/04 04:10:49;;;;;;;4.75;2.55;;;23.00;96.70;;;;;;5044840;28;20037;-76
2022/09/04 04:13:40;;;;;;;5.47;2.80;;;23.00;96.70;;;;;;5045906;28;20075;-77
2022/09/04 04:16:23;;;;;;;5.22;2.53;;;23.00;96.70;;;;;;5045357;28;20073;-76
2022/09/04 04:19:05;;;;;;;6.90;2.50;;;23.00;96.70;;;;;;5052603;28;20143;-77
2022/09/04 04:21:55;;;;;;;7.28;2.85;;;22.90;96.70;;;;;;5042637;28;20036;-76
2022/09/04 04:24:48;;;;;;;3.88;2.40;;;22.90;96.70;;;;;;5028638;28;20057;-77
2022/09/04 04:27:34;;;;;;;3.47;2.30;;;22.90;96.70;;;;;;5051058;28;20413;-76
2022/09/04 04:30:06;;;;;;;5.85;2.17;;;22.80;96.70;;;;;;5052933;28;20147;-76
2022/09/04 04:33:07;;;;;;;4.65;2.28;;;22.80;96.70;;;;;;5048185;28;20243;-76
2022/09/04 04:35:44;;;;;;;7.38;2.83;;;22.80;96.70;;;;;;5054655;28;20120;-76
2022/09/04 04:38:29;;;;;;;3.83;2.17;;;22.80;96.70;;;;;;5045900;28;20049;-76
2022/09/04 04:41:23;;;;;;;6.20;3.00;;;22.80;96.70;;;;;;5044602;28;20049;-76
2022/09/04 04:44:06;;;;;;;4.55;2.35;;;22.70;96.70;;;;;;5043468;28;20049;-76
2022/09/04 04:46:53;;;;;;;4.72;2.28;;;22.70;96.70;;;;;;5039016;28;20062;-77
2022/09/04 04:49:55;;;;;;;4.70;2.55;;;22.80;96.70;;;;;;5045232;28;20069;-76
2022/09/04 04:52:31;;;;;;;6.20;2.70;;;22.70;96.70;;;;;;5040807;28;20049;-76
2022/09/04 04:55:15;;;;;;;5.60;2.70;;;22.60;96.70;;;;;;5045186;28;20049;-76
2022/09/04 04:58:12;;;;;;;4.68;2.60;;;22.70;96.70;;;;;;5046111;28;20135;-76
2022/09/04 05:00:46;;;;;;;5.65;2.80;;;22.70;96.70;;;;;;5041942;28;20049;-77
2022/09/04 05:03:24;;;;;;;10.98;3.15;;;22.70;96.70;;;;;;5051470;28;20068;-76
2022/09/04 05:06:00;;;;;;;5.47;3.13;;;22.70;96.70;;;;;;5038103;28;20401;-76
2022/09/04 05:08:41;;;;;;;6.67;2.73;;;22.70;96.70;;;;;;5043908;28;20525;-77
2022/09/04 05:11:21;;;;;;;3.85;2.40;;;22.80;96.70;;;;;;5049631;28;20373;-76
2022/09/04 05:14:00;;;;;;;3.55;2.60;;;22.80;96.70;;;;;;5045132;28;20048;-76
2022/09/04 05:16:41;;;;;;;4.10;2.67;;;22.80;96.70;;;;;;5042324;28;20067;-76
2022/09/04 05:19:23;;;;;;;5.05;2.88;;;22.80;96.70;;;;;;5055531;28;20061;-76
2022/09/04 05:21:59;;;;;;;4.30;2.97;;;22.80;96.70;;;;;;5046007;28;20033;-76
2022/09/04 05:24:35;;;;;;;4.97;2.63;;;22.80;96.70;;;;;;5047417;28;20056;-76
2022/09/04 05:27:28;;;;;;;4.85;2.60;;;22.80;96.70;;;;;;5049301;28;20072;-77
2022/09/04 05:30:04;;;;;;;4.93;2.45;;;22.80;96.70;;;;;;5044212;28;20095;-76
2022/09/04 05:32:45;;;;;;;3.83;2.35;;;22.90;96.70;;;;;;5050123;28;20048;-76
2022/09/04 05:35:19;;;;;;;3.13;2.70;;;22.90;96.70;;;;;;5051998;28;20064;-76
2022/09/04 05:37:55;;;;;;;4.13;2.63;;;22.90;96.70;;;;;;5054055;28;20049;-76
2022/09/04 05:40:28;;;;;;;3.58;2.53;;;23.00;96.70;;;;;;5051067;28;20113;-76
2022/09/04 05:43:12;;;;;;;3.55;2.58;;;23.00;96.70;;;;;;5048093;28;20044;-76
2022/09/04 05:45:52;;;;;;;4.13;2.63;;;23.00;96.70;;;;;;5043448;28;20143;-76
2022/09/04 05:48:26;;;;;;;7.75;2.65;;;22.90;96.70;;;;;;5042432;28;20521;-76
2022/09/04 05:51:32;;;;;;;3.80;2.45;;;22.90;96.70;;;;;;5046708;28;20045;-76
2022/09/04 05:54:30;;;;;;;6.45;2.70;;;22.90;96.70;;;;;;5048303;28;20052;-76
2022/09/04 05:57:06;;;;;;;4.70;2.58;;;23.00;96.70;;;;;;5049361;28;20043;-76
2022/09/04 06:00:03;;;;;;;3.28;2.47;;;23.00;96.70;;;;;;5028527;28;20072;-76
2022/09/04 06:03:17;;;;;;;6.57;2.95;;;22.80;96.70;;;;;;5044705;28;20073;-76
2022/09/04 06:06:04;;;;;;;4.43;2.55;;;22.80;96.70;;;;;;5027153;28;20548;-76
2022/09/04 06:09:00;;;;;;;4.28;2.42;;;22.90;96.70;;;;;;5019914;28;20088;-77
2022/09/04 06:11:40;;;;;;;4.40;3.08;;;22.90;96.70;;;;;;5043391;28;20524;-76
2022/09/04 06:14:34;;;;;;;3.45;2.70;;;22.90;96.70;;;;;;5048305;28;20053;-75
2022/09/04 06:17:34;;;;;;;4.78;2.63;;;22.90;96.70;;;;;;5038339;28;20052;-75
2022/09/04 06:20:33;;;;;;;4.80;2.70;;;22.80;96.70;;;;;;5011786;28;20098;-75
2022/09/04 06:23:42;;;;;;;5.75;2.70;;;22.80;96.70;;;;;;5043748;28;20053;-75
2022/09/04 06:26:29;;;;;;;4.65;2.70;;;22.90;96.70;;;;;;5022778;28;20462;-75
2022/09/04 06:29:24;;;;;;;4.82;2.90;;;23.00;96.70;;;;;;5038421;28;20508;-75
2022/09/04 06:32:34;;;;;;;3.58;2.60;;;23.10;96.70;;;;;;5061205;28;20187;-75
2022/09/04 06:35:31;;;;;;;3.85;2.58;;;23.10;96.70;;;;;;5041857;28;20509;-74
2022/09/04 06:38:32;;;;;;;4.03;2.92;;;23.20;96.70;;;;;;5053734;28;20059;-76
2022/09/04 06:41:13;;;;;;;3.50;2.70;;;23.30;96.70;;;;;;5046998;28;20057;-75
2022/09/04 06:43:54;;;;;;;4.90;2.75;;;23.30;96.70;;;;;;5056434;28;20052;-75
2022/09/04 06:46:27;;;;;;;3.25;2.30;;;23.30;96.70;;;;;;5055355;28;20126;-74
2022/09/04 06:49:08;;;;;;;3.20;2.53;;;23.40;96.70;;;;;;5059186;28;20648;-79
2022/09/04 06:52:06;;;;;;;3.22;2.47;;;23.50;96.70;;;;;;5035485;28;20524;-76
2022/09/04 06:54:46;;;;;;;3.53;2.47;;;23.50;96.70;;;;;;5055274;28;20041;-77
2022/09/04 06:57:40;;;;;;;4.55;2.80;;;23.50;96.70;;;;;;5044072;28;20118;-75
2022/09/04 07:00:10;;;;;;;5.43;2.65;;;23.50;96.70;;;;;;5057149;28;20114;-75
2022/09/04 07:03:00;;;;;;;4.60;2.90;;;23.50;96.70;;;;;;5059504;28;20396;-76
2022/09/04 07:05:36;;;;;;;2.80;2.53;;;23.60;96.70;;;;;;5021800;28;20060;-74
2022/09/04 07:08:27;;;;;;;3.42;2.47;;;23.70;96.70;;;;;;5059062;28;20051;-75
2022/09/04 07:11:06;;;;;;;3.72;3.28;;;23.80;96.70;;;;;;5039782;28;20047;-75
2022/09/04 07:14:02;;;;;;;5.82;2.70;;;23.80;96.70;;;;;;5043075;28;20045;-75
2022/09/04 07:16:42;;;;;;;3.80;3.05;;;23.90;96.70;;;;;;5017727;28;20065;-75
2022/09/04 07:19:49;;;;;;;4.35;2.60;;;23.90;96.70;;;;;;5039197;28;20111;-75
2022/09/04 07:22:33;;;;;;;5.85;2.50;;;23.90;96.70;;;;;;5038737;28;20052;-76
2022/09/04 07:25:12;;;;;;;4.70;2.58;;;24.00;96.70;;;;;;5041312;28;20505;-75
2022/09/04 07:28:09;;;;;;;3.55;2.33;;;24.10;96.70;;;;;;5050515;28;20738;-76
2022/09/04 07:30:43;;;;;;;3.22;2.33;;;24.20;96.70;;;;;;5050799;28;20401;-75
2022/09/04 07:33:18;;;;;;;3.85;2.78;;;24.10;96.70;;;;;;5053664;28;20053;-76
2022/09/04 07:35:55;;;;;;;4.43;2.60;;;24.20;96.70;;;;;;5048113;28;20064;-75
2022/09/04 07:38:33;;;;;;;5.13;2.63;;;24.10;96.70;;;;;;5050734;28;20055;-76
2022/09/04 07:41:08;;;;;;;3.22;2.70;;;24.10;96.70;;;;;;5059050;28;20052;-76
2022/09/04 07:43:43;;;;;;;5.20;2.28;;;24.10;96.70;;;;;;5041888;28;20481;-76
2022/09/04 07:46:19;;;;;;;2.55;2.33;;;24.20;96.70;;;;;;5066894;28;20080;-75
2022/09/04 07:48:54;;;;;;;3.95;2.42;;;24.20;96.70;;;;;;5042194;28;20117;-76
2022/09/04 07:51:26;;;;;;;3.50;2.45;;;24.10;96.70;;;;;;5046858;28;20049;-80
2022/09/04 07:54:16;;;;;;;7.20;3.45;;;24.10;96.70;;;;;;5045015;28;20072;-77
2022/09/04 07:57:29;;;;;;;4.50;2.97;;;24.10;96.70;;;;;;5047895;28;20080;-77
2022/09/04 08:00:01;;;;;;;;;;;24.10;96.70;;;;;;5027593;28;20064;-76
2022/09/04 08:03:15;;;;;;;3.85;2.83;;;24.10;96.70;;;;;;5046369;28;20363;-79
2022/09/04 08:05:50;;;;;;;3.30;3.00;;;24.10;96.70;;;;;;5044674;28;20094;-77
2022/09/04 08:08:57;;;;;;;5.55;2.90;;;24.20;96.70;;;;;;5046733;28;20037;-79
2022/09/04 08:11:47;;;;;;;3.83;2.65;;;24.20;96.70;;;;;;5007957;28;20136;-80
2022/09/04 08:14:30;;;;;;;4.05;2.80;;;24.20;96.70;;;;;;5033340;28;20060;-78
2022/09/04 08:17:23;;;;;;;3.80;2.97;;;24.10;96.70;;;;;;5042171;28;20133;-78
2022/09/04 08:20:02;;;;;;;3.80;3.08;;;24.00;96.70;;;;;;5042838;28;20068;-78
2022/09/04 08:22:38;;;;;;;5.70;3.10;;;24.00;96.70;;;;;;5039416;28;20044;-79
2022/09/04 08:25:15;;;;;;;4.72;2.65;;;24.00;96.70;;;;;;5044670;28;20509;-78
2022/09/04 08:28:08;;;;;;;4.60;2.72;;;24.00;96.70;;;;;;5029778;28;20509;-79
2022/09/04 08:30:43;;;;;;;5.30;2.92;;;24.10;96.70;;;;;;5038945;28;20072;-79
2022/09/04 08:33:47;;;;;;;3.88;2.88;;;24.20;96.70;;;;;;5044246;28;20041;-78
2022/09/04 08:36:30;;;;;;;3.83;2.80;;;24.20;96.70;;;;;;5041940;28;20400;-78
2022/09/04 08:39:06;;;;;;;4.30;2.72;;;24.20;96.70;;;;;;5023241;28;20044;-78
2022/09/04 08:42:26;;;;;;;4.97;3.15;;;24.20;96.70;;;;;;5041138;28;20041;-78
2022/09/04 08:45:31;;;;;;;4.13;2.78;;;24.30;96.70;;;;;;4945255;28;20078;-79
2022/09/04 08:48:36;;;;;;;4.50;3.28;;;24.40;96.70;;;;;;4952409;28;20073;-79
2022/09/04 08:51:40;;;;;;;4.25;2.92;;;24.40;96.70;;;;;;5009048;28;20140;-77
2022/09/04 08:54:49;;;;;;;4.80;2.75;;;24.40;96.70;;;;;;5044076;28;20041;-76
2022/09/04 08:57:46;;;;;;;5.38;3.10;;;24.50;96.70;;;;;;5041437;28;20048;-75
2022/09/04 09:00:16;;;;;;;3.83;2.65;;;24.50;96.70;;;;;;5041256;28;20049;-77
2022/09/04 09:03:15;;;;;;;4.20;3.10;;;24.50;96.70;;;;;;5042248;28;20045;-77
2022/09/04 09:06:24;;;;;;;4.82;3.17;;;24.50;96.70;;;;;;5045109;28;20110;-78
2022/09/04 09:09:21;;;;;;;6.28;2.90;;;24.50;96.70;;;;;;5039112;28;20076;-77
2022/09/04 09:12:35;;;;;;;4.22;2.80;;;24.50;96.70;;;;;;5045161;28;20045;-78
2022/09/04 09:15:41;;;;;;;7.82;3.38;;;24.50;96.70;;;;;;5046990;28;20141;-78
2022/09/04 09:18:34;;;;;;;3.58;2.78;;;24.60;96.70;;;;;;5043036;28;20050;-78
2022/09/04 09:21:08;;;;;;;4.03;2.72;;;24.60;96.70;;;;;;5021053;28;20153;-77
2022/09/04 09:24:05;;;;;;;2.80;2.60;;;24.60;96.70;;;;;;5043750;28;20076;-79
2022/09/04 09:26:38;;;;;;;4.68;2.80;;;24.60;96.70;;;;;;5044439;28;20098;-79
2022/09/04 09:29:34;;;;;;;4.78;2.70;;;24.60;96.70;;;;;;5024389;28;20041;-79
2022/09/04 09:32:41;;;;;;;3.20;2.70;;;24.60;96.70;;;;;;5052737;28;20800;-79
2022/09/04 09:36:03;;;;;;;5.88;2.95;;;24.70;96.70;;;;;;5017778;28;20136;-79
2022/09/04 09:39:13;;;;;;;3.78;2.53;;;24.70;96.70;;;;;;5044176;28;20037;-77
2022/09/04 09:42:20;;;;;;;4.28;2.75;;;24.70;96.70;;;;;;5041654;28;20045;-78
2022/09/04 09:45:28;;;;;;;3.37;2.47;;;24.80;96.70;;;;;;5042876;28;20040;-81
2022/09/04 09:48:32;;;;;;;4.93;2.63;;;24.80;96.70;;;;;;5046094;28;20283;-81
2022/09/04 09:51:46;;;;;;;3.33;2.53;;;24.90;96.70;;;;;;5026097;28;20049;-77
2022/09/04 09:54:47;;;;;;;2.90;2.58;;;24.90;96.70;;;;;;5057674;28;20064;-77
2022/09/04 09:57:41;;;;;;;6.78;3.70;;;25.00;96.70;;;;;;5044961;28;20041;-77
2022/09/04 10:00:15;;;;;;;4.38;2.95;;;25.00;96.70;;;;;;5047081;28;20487;-76
2022/09/04 10:03:25;;;;;;;6.43;2.97;;;25.00;96.70;;;;;;5044678;28;20052;-78
2022/09/04 10:06:26;;;;;;;4.07;2.55;;;25.00;96.70;;;;;;5039423;28;20186;-75
2022/09/04 10:09:24;;;;;;;3.22;2.80;;;25.10;96.70;;;;;;5036085;28;20079;-77
2022/09/04 10:12:20;;;;;;;3.38;2.33;;;25.20;96.70;;;;;;5040476;28;20065;-76
2022/09/04 10:15:40;;;;;;;3.63;2.40;;;25.30;96.70;;;;;;5044002;28;20048;-77
2022/09/04 10:18:43;;;;;;;4.32;3.00;;;25.30;96.70;;;;;;5040699;28;20045;-77
2022/09/04 10:21:49;;;;;;;4.82;3.13;;;25.30;96.70;;;;;;5039192;28;20054;-77
2022/09/04 10:24:45;;;;;;;4.53;2.67;;;25.40;96.70;;;;;;5024605;28;20068;-77
2022/09/04 10:27:48;;;;;;;3.67;2.60;;;25.40;96.70;;;;;;5021086;28;20147;-77
2022/09/04 10:30:19;;;;;;;3.80;2.67;;;25.40;96.70;;;;;;5016966;28;20044;-77
2022/09/04 10:33:22;;;;;;;4.38;2.90;;;25.50;96.70;;;;;;5041210;28;20498;-77
2022/09/04 10:36:03;;;;;;;3.28;2.90;;;25.60;96.70;;;;;;5047126;28;20048;-77
2022/09/04 10:40:34;;;;;;;3.35;2.60;;;25.70;96.70;;;;;;5043214;28;20049;-77
2022/09/04 10:41:58;;;;;;;4.80;2.83;;;25.70;96.70;;;;;;5050597;28;20052;-77
2022/09/04 10:44:39;;;;;;;3.63;2.47;;;25.80;96.70;;;;;;5043367;28;20045;-77
2022/09/04 10:47:20;;;;;;;3.47;2.65;;;25.90;96.70;;;;;;5046003;28;20067;-77
2022/09/04 10:50:20;;;;;;;5.50;3.17;;;25.90;96.70;;;;;;5032478;28;20055;-77
2022/09/04 10:53:19;;;;;;;3.70;3.10;;;26.10;96.70;;;;;;5004732;28;20056;-77
2022/09/04 10:56:11;;;;;;;2.97;2.78;;;26.10;96.70;;;;;;5035614;28;20041;-77
2022/09/04 10:59:09;;;;;;;4.60;3.25;;;26.30;96.70;;;;;;5048941;28;20051;-77
2022/09/04 11:02:01;;;;;;;4.32;2.78;;;26.30;96.70;;;;;;5043494;28;20049;-77
2022/09/04 11:05:06;;;;;;;4.85;2.63;;;26.50;96.70;;;;;;5049453;28;20406;-77
2022/09/04 11:08:15;;;;;;;4.28;3.10;;;26.60;96.70;;;;;;5032934;28;20517;-77
2022/09/04 11:11:11;;;;;;;4.50;3.33;;;26.70;96.70;;;;;;5018157;28;20788;-77
2022/09/04 11:14:19;;;;;;;4.13;3.20;;;26.70;96.70;;;;;;5060015;28;20049;-77
2022/09/04 11:17:16;;;;;;;4.20;3.30;;;26.80;96.70;;;;;;5044435;28;20788;-77
2022/09/04 11:20:21;;;;;;;5.80;2.97;;;27.00;96.70;;;;;;5040505;28;20053;-77
2022/09/04 11:23:37;;;;;;;4.50;3.00;;;27.10;96.70;;;;;;5055229;28;20049;-76
2022/09/04 11:26:46;;;;;;;5.80;2.92;;;27.40;96.70;;;;;;5049258;28;20045;-77
2022/09/04 11:29:42;;;;;;;3.72;3.35;;;27.70;96.70;;;;;;5044511;28;20075;-78
2022/09/04 11:32:33;;;;;;;5.47;3.17;;;27.90;96.70;;;;;;5051965;28;20134;-77
2022/09/04 11:35:35;;;;;;;4.78;3.20;;;28.00;96.70;;;;;;5047644;28;20049;-77
2022/09/04 11:38:18;;;;;;;3.30;2.28;;;28.20;96.70;;;;;;5061719;28;20519;-77
2022/09/04 11:41:27;;;;;;;4.00;2.22;;;28.20;96.70;;;;;;5054164;28;20053;-77
2022/09/04 11:44:34;;;;;;;4.80;2.17;;;28.30;96.70;;;;;;5045597;28;20494;-77
2022/09/04 11:47:33;;;;;;;5.25;2.10;;;28.60;96.70;;;;;;5042144;28;20053;-77
2022/09/04 11:50:22;;;;;;;3.88;2.08;;;28.80;96.70;;;;;;5052055;28;20063;-77
2022/09/04 11:53:18;;;;;;;2.38;1.90;;;28.90;96.70;;;;;;5044894;28;20053;-77
2022/09/04 11:56:11;;;;;;;1.92;1.27;;;28.90;96.70;;;;;;5054652;28;20175;-77
2022/09/04 11:58:57;;;;;;;2.08;1.70;;;29.00;96.70;;;;;;5045505;28;20049;-77
2022/09/04 12:02:09;;;;;;;3.67;1.70;;;29.20;96.70;;;;;;5047538;28;20132;-77
2022/09/04 12:04:57;;;;;;;2.33;2.00;;;29.30;96.70;;;;;;5003827;28;20054;-78
2022/09/04 12:07:38;;;;;;;2.85;2.17;;;29.40;96.70;;;;;;5040010;28;20479;-77
2022/09/04 12:10:44;;;;;;;4.72;3.15;;;29.40;96.70;;;;;;5044828;28;20045;-77
2022/09/04 12:13:51;;;;;;;4.95;2.58;;;29.50;96.70;;;;;;5041844;28;20049;-77
2022/09/04 12:17:04;;;;;;;3.92;1.30;;;29.70;96.70;;;;;;5039158;28;20049;-77
2022/09/04 12:20:16;;;;;;;2.33;1.30;;;29.80;96.70;;;;;;5048887;28;20098;-78
2022/09/04 12:23:20;;;;;;;2.60;1.40;;;29.80;96.70;;;;;;5044873;28;20048;-77
2022/09/04 12:26:25;;;;;;;2.28;1.13;;;29.80;96.70;;;;;;5042330;28;20049;-77
2022/09/04 12:29:33;;;;;;;3.67;1.30;;;29.90;96.70;;;;;;5025097;28;20045;-77
2022/09/04 12:32:26;;;;;;;3.47;1.60;;;30.00;96.70;;;;;;5056236;28;20215;-77
2022/09/04 12:35:28;;;;;;;2.53;1.27;;;30.00;96.70;;;;;;5048175;28;20045;-77
2022/09/04 12:38:27;;;;;;;4.97;1.35;;;29.80;96.70;;;;;;5045411;28;20041;-76
2022/09/04 12:41:04;;;;;;;3.17;1.35;;;30.00;96.70;;;;;;5039696;28;20502;-77
2022/09/04 12:43:45;;;;;;;4.45;1.50;;;30.30;96.70;;;;;;5047669;28;20102;-77
2022/09/04 12:46:34;;;;;;;4.65;1.15;;;30.30;96.70;;;;;;5057167;28;20077;-77
2022/09/04 12:49:25;;;;;;;2.53;1.13;;;30.40;96.70;;;;;;5048855;28;20490;-76
2022/09/04 12:52:05;;;;;;;4.53;1.20;;;30.40;96.70;;;;;;5045964;28;20041;-76
2022/09/04 12:54:40;;;;;;;8.98;2.00;;;30.50;96.70;;;;;;5048210;28;20083;-76
2022/09/04 12:57:24;;;;;;;2.42;1.15;;;30.30;96.70;;;;;;5044946;28;20044;-76
2022/09/04 13:00:04;;;;;;;2.85;0.98;;;30.10;96.70;;;;;;5043190;28;20037;-75
2022/09/04 13:02:54;;;;;;;3.40;0.95;;;30.00;96.70;;;;;;5045375;28;20041;-76
2022/09/04 13:05:44;;;;;;;3.90;1.08;;;30.20;96.70;;;;;;5036157;28;20037;-77
2022/09/04 13:08:29;;;;;;;4.45;1.13;;;30.30;96.70;;;;;;5047140;28;20063;-77
2022/09/04 13:11:18;;;;;;;4.20;1.50;;;30.50;96.70;;;;;;5059590;28;20525;-75
2022/09/04 13:13:55;;;;;;;3.10;1.20;;;30.60;96.70;;;;;;5047614;28;20094;-77
2022/09/04 13:16:32;;;;;;;2.17;1.27;;;30.30;96.70;;;;;;5042068;28;20088;-75
2022/09/04 13:19:13;;;;;;;3.20;1.27;;;30.30;96.70;;;;;;5044680;28;20127;-77
2022/09/04 13:22:10;;;;;;;3.63;1.27;;;30.50;96.70;;;;;;4993098;28;20088;-76
2022/09/04 13:24:51;;;;;;;2.90;1.20;;;30.40;96.70;;;;;;5039735;28;20052;-77
2022/09/04 13:27:37;;;;;;;5.10;1.38;;;30.50;96.70;;;;;;5044949;28;20045;-78
2022/09/04 13:30:10;;;;;;;5.30;1.25;;;30.50;96.70;;;;;;5044871;28;20033;-79
2022/09/04 13:33:22;;;;;;;3.33;1.15;;;30.50;96.70;;;;;;5022135;28;21356;-77
2022/09/04 13:36:17;;;;;;;4.28;1.15;;;30.40;96.70;;;;;;5045697;28;20522;-77
2022/09/04 13:39:35;;;;;;;9.05;1.92;;;30.60;96.70;;;;;;5028988;28;20131;-78
2022/09/04 13:43:05;;;;;;;4.47;1.20;;;30.70;96.70;;;;;;5043501;28;20104;-76
2022/09/04 13:45:39;;;;;;;5.90;1.42;;;30.90;96.70;;;;;;4997596;28;20056;-81
2022/09/04 13:48:12;;;;;;;1.95;1.13;;;31.30;96.70;;;;;;5023595;28;20077;-76
2022/09/04 13:50:47;;;;;;;3.33;1.05;;;31.50;96.70;;;;;;5007307;28;20068;-76
2022/09/04 13:53:20;;;;;;;3.35;1.40;;;31.60;96.70;;;;;;5004468;28;20052;-77
2022/09/04 13:55:53;;;;;;;2.30;1.23;;;31.70;96.70;;;;;;5005827;28;20077;-80
2022/09/04 13:58:29;;;;;;;4.10;1.52;;;31.90;96.70;;;;;;5020892;28;20056;-79
2022/09/04 14:01:00;;;;;;;3.10;1.23;;;32.20;96.70;;;;;;4997921;28;20050;-79
2022/09/04 14:03:35;;;;;;;3.13;1.00;;;32.50;96.70;;;;;;4998700;28;20079;-78
2022/09/04 14:06:07;;;;;;;4.28;1.40;;;32.80;96.70;;;;;;5021598;28;20049;-78
2022/09/04 14:08:38;;;;;;;4.53;1.45;;;32.90;96.70;;;;;;5002527;28;20064;-78
2022/09/04 14:11:44;;;;;;;3.67;1.20;;;32.70;96.70;;;;;;5023679;28;20080;-79
2022/09/04 14:14:43;;;;;;;4.93;1.40;;;32.90;96.70;;;;;;5027028;28;20053;-80
2022/09/04 14:17:22;;;;;;;4.68;1.63;;;33.10;96.70;;;;;;5040433;28;20171;-76
2022/09/04 14:19:58;;;;;;;5.00;1.17;;;33.20;96.70;;;;;;5026050;28;20060;-78
2022/09/04 14:22:42;;;;;;;3.70;1.30;;;33.30;96.70;;;;;;5042130;28;20053;-77
2022/09/04 14:25:17;;;;;;;9.25;1.60;;;33.40;96.70;;;;;;5047900;28;20402;-78
2022/09/04 14:27:55;;;;;;;3.97;1.30;;;33.80;96.70;;;;;;5044717;28;20048;-77
2022/09/04 14:30:50;;;;;;;5.88;2.05;;;34.10;96.70;;;;;;5044528;28;20049;-79